Time;durP1;ratioP1;P1;durP2;ratioP2;P2;SDS_P1;SDS_P2;PMS_P1;PMS_P2;Temp;Humidity;BMP_temperature;BMP_pressure;BME280_temperature;BME280_humidity;BME280_pressure;Samples;Min_cycle;Max_cycle;Signal;HPM_P1;HPM_P2
2022/01/01 00:00:13;;;;;;;1.60;1.00;;;13.50;98.20;;;;;;5037286;28;20468;-70
2022/01/01 00:02:40;;;;;;;1.60;1.10;;;13.50;98.20;;;;;;5043434;28;20489;-70
2022/01/01 00:05:09;;;;;;;3.50;1.93;;;13.50;98.20;;;;;;5043152;28;20462;-70
2022/01/01 00:07:38;;;;;;;1.60;1.00;;;13.50;98.20;;;;;;5044753;28;20969;-70
2022/01/01 00:10:06;;;;;;;1.70;1.20;;;13.50;98.20;;;;;;5044073;28;20466;-71
2022/01/01 00:12:33;;;;;;;1.97;1.77;;;13.50;98.20;;;;;;5045751;28;20485;-70
2022/01/01 00:15:02;;;;;;;1.67;1.20;;;13.50;98.20;;;;;;5042200;28;20465;-70
2022/01/01 00:17:28;;;;;;;1.60;1.00;;;13.50;98.20;;;;;;5045477;28;21027;-71
2022/01/01 00:19:55;;;;;;;1.60;1.00;;;13.50;98.20;;;;;;5042446;28;20466;-70
2022/01/01 00:22:22;;;;;;;1.60;1.00;;;13.50;98.20;;;;;;5043415;28;20477;-70
2022/01/01 00:24:49;;;;;;;1.60;1.00;;;13.50;98.20;;;;;;5047775;28;20516;-70
2022/01/01 00:27:16;;;;;;;1.63;1.10;;;13.50;98.20;;;;;;5041962;28;20475;-70
2022/01/01 00:29:43;;;;;;;1.60;1.00;;;13.50;98.20;;;;;;5048663;28;20464;-70
2022/01/01 00:32:11;;;;;;;1.60;1.00;;;13.50;98.20;;;;;;5037938;28;20490;-70
2022/01/01 00:34:38;;;;;;;1.60;1.07;;;13.50;98.20;;;;;;5045646;28;20459;-70
2022/01/01 00:37:05;;;;;;;1.60;1.00;;;13.50;98.20;;;;;;5042849;28;20512;-70
2022/01/01 00:39:32;;;;;;;1.60;1.10;;;13.40;98.20;;;;;;5048263;28;20466;-71
2022/01/01 00:41:59;;;;;;;1.60;1.00;;;13.40;98.20;;;;;;5041396;28;20489;-71
2022/01/01 00:44:26;;;;;;;1.60;1.13;;;13.50;98.20;;;;;;5041903;28;21240;-70
2022/01/01 00:46:53;;;;;;;1.63;1.10;;;13.40;98.20;;;;;;5040783;28;20543;-70
2022/01/01 00:49:21;;;;;;;1.60;1.00;;;13.40;98.20;;;;;;5048515;28;20462;-71
2022/01/01 00:51:48;;;;;;;1.60;1.00;;;13.40;98.20;;;;;;5039980;28;20490;-71
2022/01/01 00:54:14;;;;;;;1.63;1.10;;;13.50;98.20;;;;;;5047641;28;20623;-70
2022/01/01 00:56:42;;;;;;;1.60;1.10;;;13.50;98.20;;;;;;5037614;28;20481;-70
2022/01/01 00:59:09;;;;;;;1.60;1.00;;;13.50;98.20;;;;;;5050260;28;21008;-70
2022/01/01 01:01:36;;;;;;;1.60;1.00;;;13.50;98.20;;;;;;5037284;28;20492;-71
2022/01/01 01:04:03;;;;;;;1.67;1.13;;;13.50;98.20;;;;;;5049245;28;20462;-70
2022/01/01 01:06:32;;;;;;;1.60;1.00;;;13.50;98.20;;;;;;5036929;28;20478;-70
2022/01/01 01:09:00;;;;;;;1.60;1.00;;;13.50;98.20;;;;;;5053155;28;20498;-71
2022/01/01 01:11:28;;;;;;;1.70;1.20;;;13.40;98.20;;;;;;5036179;28;20873;-70
2022/01/01 01:13:59;;;;;;;1.60;1.00;;;13.40;98.20;;;;;;5050515;28;20531;-70
2022/01/01 01:16:28;;;;;;;1.60;1.00;;;13.40;98.20;;;;;;5035187;28;20969;-70
2022/01/01 01:18:57;;;;;;;1.60;1.00;;;13.40;98.20;;;;;;5053766;28;20527;-70
2022/01/01 01:21:25;;;;;;;1.60;1.03;;;13.40;98.20;;;;;;5034170;28;21041;-70
2022/01/01 01:23:54;;;;;;;1.60;1.10;;;13.40;98.20;;;;;;5054551;28;20557;-71
2022/01/01 01:26:22;;;;;;;1.60;1.10;;;13.40;98.20;;;;;;5035182;28;21071;-70
2022/01/01 01:28:51;;;;;;;1.60;1.00;;;13.40;98.20;;;;;;5053249;28;20955;-71
2022/01/01 01:31:19;;;;;;;1.60;1.10;;;13.40;98.20;;;;;;5033847;28;21012;-70
2022/01/01 01:33:46;;;;;;;1.60;1.10;;;13.40;98.20;;;;;;5052428;28;20966;-70
2022/01/01 01:36:13;;;;;;;1.60;1.03;;;13.40;98.20;;;;;;5032716;28;20481;-71
2022/01/01 01:38:40;;;;;;;1.60;1.10;;;13.40;98.20;;;;;;5051947;28;20467;-71
2022/01/01 01:41:10;;;;;;;1.60;1.20;;;13.40;98.20;;;;;;5031760;28;20478;-70
2022/01/01 01:43:37;;;;;;;1.60;1.10;;;13.40;98.20;;;;;;5037515;28;20458;-71
2022/01/01 01:46:05;;;;;;;1.60;1.00;;;13.40;98.20;;;;;;5030997;28;20458;-70
2022/01/01 01:48:34;;;;;;;1.67;1.20;;;13.40;98.20;;;;;;5053251;28;20482;-70
2022/01/01 01:51:01;;;;;;;1.60;1.10;;;13.40;98.20;;;;;;5031743;28;20478;-70
2022/01/01 01:53:29;;;;;;;1.60;1.00;;;13.40;98.20;;;;;;5056724;28;20462;-70
2022/01/01 01:55:58;;;;;;;1.60;1.10;;;13.40;98.20;;;;;;5031042;28;20489;-71
2022/01/01 01:58:28;;;;;;;1.60;1.00;;;13.40;98.20;;;;;;5055510;28;20471;-70
2022/01/01 02:01:20;;;;;;;1.60;1.00;;;13.40;98.20;;;;;;5031385;28;20569;-71
2022/01/01 02:03:47;;;;;;;1.60;1.10;;;13.40;98.20;;;;;;5049065;28;20462;-71
2022/01/01 02:06:15;;;;;;;1.60;1.10;;;13.40;98.20;;;;;;5034715;28;20481;-70
2022/01/01 02:08:44;;;;;;;1.60;1.10;;;13.40;98.20;;;;;;5054737;28;20466;-70
2022/01/01 02:11:11;;;;;;;1.60;1.00;;;13.40;98.20;;;;;;5031485;28;20500;-71
2022/01/01 02:13:59;;;;;;;1.60;1.00;;;13.40;98.20;;;;;;5048432;28;20471;-70
2022/01/01 02:16:36;;;;;;;1.60;1.00;;;13.40;98.20;;;;;;5036458;28;20488;-71
2022/01/01 02:19:03;;;;;;;1.60;1.10;;;13.40;98.20;;;;;;5049180;28;20474;-71
2022/01/01 02:21:31;;;;;;;1.60;1.10;;;13.40;98.20;;;;;;5036303;28;20477;-71
2022/01/01 02:23:59;;;;;;;1.60;1.07;;;13.40;98.20;;;;;;5047320;28;20490;-71
2022/01/01 02:26:32;;;;;;;1.63;1.00;;;13.40;98.20;;;;;;5035388;28;21089;-71
2022/01/01 02:29:00;;;;;;;1.60;1.00;;;13.40;98.20;;;;;;5047705;28;20458;-71
2022/01/01 02:31:27;;;;;;;1.63;1.10;;;13.40;98.20;;;;;;5035255;28;20485;-71
2022/01/01 02:33:54;;;;;;;1.60;1.10;;;13.40;98.20;;;;;;5049003;28;20469;-71
2022/01/01 02:36:34;;;;;;;1.60;1.10;;;13.40;98.20;;;;;;5029557;28;20489;-71
2022/01/01 02:39:02;;;;;;;1.63;1.10;;;13.40;98.20;;;;;;5048129;28;20556;-71
2022/01/01 02:41:30;;;;;;;1.70;1.20;;;13.40;98.20;;;;;;5018984;28;20487;-68
2022/01/01 02:43:56;;;;;;;2.43;2.23;;;13.40;98.20;;;;;;5046714;28;20471;-72
2022/01/01 02:46:23;;;;;;;1.60;1.00;;;13.40;98.20;;;;;;5031537;28;20495;-71
2022/01/01 02:48:50;;;;;;;1.63;1.00;;;13.40;98.20;;;;;;5050107;28;20458;-71
2022/01/01 02:51:17;;;;;;;1.67;1.10;;;13.40;98.20;;;;;;5031211;28;20480;-71
2022/01/01 02:53:46;;;;;;;1.60;1.10;;;13.40;98.20;;;;;;5052738;28;20506;-71
2022/01/01 02:56:13;;;;;;;1.60;1.00;;;13.40;98.20;;;;;;5029141;28;20488;-71
2022/01/01 02:58:42;;;;;;;1.60;1.00;;;13.40;98.20;;;;;;5054100;28;21320;-71
2022/01/01 03:01:09;;;;;;;1.60;1.00;;;13.40;98.20;;;;;;5031012;28;20557;-71
2022/01/01 03:03:36;;;;;;;1.60;1.10;;;13.40;98.20;;;;;;5051256;28;20859;-71
2022/01/01 03:06:03;;;;;;;1.60;1.10;;;13.30;98.20;;;;;;5026382;28;20660;-71
2022/01/01 03:08:30;;;;;;;1.60;1.10;;;13.30;98.20;;;;;;5054317;28;20838;-71
2022/01/01 03:11:02;;;;;;;1.60;1.00;;;13.30;98.20;;;;;;5030935;28;20478;-71
2022/01/01 03:13:29;;;;;;;1.60;1.00;;;13.30;98.20;;;;;;5052207;28;20791;-71
2022/01/01 03:15:56;;;;;;;1.60;1.00;;;13.40;98.20;;;;;;5028517;28;20462;-71
2022/01/01 03:18:22;;;;;;;1.60;1.00;;;13.30;98.20;;;;;;5031016;28;20471;-71
2022/01/01 03:20:49;;;;;;;1.60;1.00;;;13.30;98.20;;;;;;5032205;28;20486;-70
2022/01/01 03:23:16;;;;;;;1.60;1.00;;;13.40;98.20;;;;;;5051373;28;20545;-71
2022/01/01 03:25:43;;;;;;;1.70;1.10;;;13.30;98.20;;;;;;5041176;28;20467;-72
2022/01/01 03:28:11;;;;;;;1.60;1.00;;;13.30;98.20;;;;;;5054935;28;20466;-71
2022/01/01 03:30:39;;;;;;;1.60;1.10;;;13.40;98.20;;;;;;5040904;28;20492;-71
2022/01/01 03:33:06;;;;;;;1.60;1.00;;;13.30;98.20;;;;;;5051508;28;20510;-71
2022/01/01 03:35:32;;;;;;;1.60;1.10;;;13.30;98.20;;;;;;5042381;28;20543;-71
2022/01/01 03:37:59;;;;;;;1.60;0.90;;;13.40;98.20;;;;;;5047594;28;20481;-71
2022/01/01 03:40:26;;;;;;;1.60;1.00;;;13.40;98.20;;;;;;5040047;28;20561;-71
2022/01/01 03:42:53;;;;;;;1.60;1.10;;;13.30;98.20;;;;;;5032942;28;20520;-71
2022/01/01 03:45:21;;;;;;;1.60;1.00;;;13.30;98.20;;;;;;5041066;28;20458;-71
2022/01/01 03:47:48;;;;;;;1.70;1.10;;;13.30;98.20;;;;;;5028756;28;20478;-71
2022/01/01 03:50:15;;;;;;;1.60;1.00;;;13.30;98.20;;;;;;5043312;28;21086;-71
2022/01/01 03:52:43;;;;;;;1.60;1.10;;;13.30;98.20;;;;;;5048829;28;20576;-71
2022/01/01 03:55:10;;;;;;;1.60;1.10;;;13.30;98.20;;;;;;5040512;28;20500;-71
2022/01/01 03:57:37;;;;;;;1.60;1.00;;;13.30;98.20;;;;;;5045212;28;20480;-71
2022/01/01 04:00:06;;;;;;;1.60;1.00;;;13.30;98.20;;;;;;5043103;28;20462;-71
2022/01/01 04:02:35;;;;;;;1.60;1.00;;;13.30;98.20;;;;;;5041876;28;20478;-71
2022/01/01 04:05:03;;;;;;;1.63;1.10;;;13.30;98.20;;;;;;5042070;28;20468;-71
2022/01/01 04:07:30;;;;;;;1.60;1.10;;;13.30;98.20;;;;;;5046531;28;20910;-71
2022/01/01 04:09:57;;;;;;;1.63;1.20;;;13.30;98.20;;;;;;5042649;28;20942;-70
2022/01/01 04:12:24;;;;;;;1.60;1.00;;;13.30;98.20;;;;;;5032487;28;20502;-71
2022/01/01 04:14:51;;;;;;;1.60;1.03;;;13.30;98.20;;;;;;5036595;28;20458;-71
2022/01/01 04:17:18;;;;;;;1.60;1.00;;;13.30;98.20;;;;;;5029977;28;21133;-71
2022/01/01 04:19:47;;;;;;;1.60;1.10;;;13.30;98.20;;;;;;5040277;28;20959;-71
2022/01/01 04:22:16;;;;;;;1.60;1.10;;;13.30;98.20;;;;;;5029305;28;20487;-71
2022/01/01 04:24:43;;;;;;;1.60;1.20;;;13.30;98.20;;;;;;5040975;28;20470;-71
2022/01/01 04:27:10;;;;;;;1.63;1.10;;;13.30;98.20;;;;;;5044440;28;20474;-71
2022/01/01 04:29:39;;;;;;;1.60;1.00;;;13.30;98.20;;;;;;5045724;28;20567;-71
2022/01/01 04:32:09;;;;;;;1.80;1.60;;;13.30;98.20;;;;;;5027853;28;20565;-71
2022/01/01 04:34:36;;;;;;;1.60;1.10;;;13.30;98.20;;;;;;5038355;28;20454;-71
2022/01/01 04:37:11;;;;;;;1.60;1.10;;;13.30;98.20;;;;;;5038789;28;20512;-71
2022/01/01 04:39:39;;;;;;;1.60;1.00;;;13.30;98.20;;;;;;5046045;28;20877;-71
2022/01/01 04:42:06;;;;;;;1.63;1.10;;;13.30;98.20;;;;;;5029955;28;20524;-71
2022/01/01 04:44:33;;;;;;;1.60;1.00;;;13.30;98.20;;;;;;5041592;28;20465;-71
2022/01/01 04:47:00;;;;;;;1.60;1.00;;;13.20;98.20;;;;;;5033354;28;20874;-71
2022/01/01 04:49:27;;;;;;;1.60;1.00;;;13.20;98.20;;;;;;5046421;28;20468;-71
2022/01/01 04:51:54;;;;;;;1.63;1.00;;;13.20;98.20;;;;;;5044902;28;20489;-71
2022/01/01 04:54:23;;;;;;;1.63;1.20;;;13.20;98.20;;;;;;5053596;28;20464;-71
2022/01/01 04:56:50;;;;;;;1.63;1.20;;;13.20;98.20;;;;;;5042993;28;21023;-71
2022/01/01 04:59:17;;;;;;;1.60;1.10;;;13.20;98.20;;;;;;5047490;28;20464;-71
2022/01/01 05:01:45;;;;;;;1.60;1.10;;;13.20;98.20;;;;;;5034982;28;20478;-71
2022/01/01 05:04:11;;;;;;;1.60;1.10;;;13.20;98.20;;;;;;5042230;28;20467;-71
2022/01/01 05:06:40;;;;;;;1.60;1.00;;;13.20;98.20;;;;;;5035792;28;20481;-71
2022/01/01 05:09:07;;;;;;;1.60;1.10;;;13.20;98.20;;;;;;5041740;28;20462;-71
2022/01/01 05:11:35;;;;;;;1.60;1.00;;;13.20;98.20;;;;;;5039618;28;20481;-71
2022/01/01 05:14:02;;;;;;;1.60;1.00;;;13.20;98.20;;;;;;5051442;28;20906;-71
2022/01/01 05:16:29;;;;;;;1.60;1.10;;;13.10;98.20;;;;;;5040496;28;20878;-71
2022/01/01 05:18:56;;;;;;;1.63;1.10;;;13.10;98.20;;;;;;5053671;28;20842;-71
2022/01/01 05:21:23;;;;;;;1.60;1.10;;;13.10;98.20;;;;;;5036636;28;20613;-71
2022/01/01 05:23:50;;;;;;;1.60;1.10;;;13.10;98.20;;;;;;5046573;28;20485;-71
2022/01/01 05:26:17;;;;;;;1.60;1.10;;;13.10;98.20;;;;;;5039592;28;20479;-71
2022/01/01 05:28:48;;;;;;;1.60;1.10;;;13.10;98.20;;;;;;5054279;28;20458;-71
2022/01/01 05:31:15;;;;;;;1.60;1.10;;;13.10;98.20;;;;;;5036075;28;20474;-71
2022/01/01 05:33:42;;;;;;;1.60;1.10;;;13.10;98.20;;;;;;5045245;28;20975;-71
2022/01/01 05:36:09;;;;;;;1.60;1.00;;;13.10;98.20;;;;;;5036707;28;20568;-71
2022/01/01 05:38:36;;;;;;;1.60;1.00;;;13.10;98.20;;;;;;5055780;28;20490;-71
2022/01/01 05:41:03;;;;;;;1.60;1.10;;;13.10;98.20;;;;;;5030416;28;20540;-71
2022/01/01 05:43:30;;;;;;;1.60;1.00;;;13.10;98.20;;;;;;5041640;28;20473;-71
2022/01/01 05:45:58;;;;;;;1.60;1.10;;;13.10;98.20;;;;;;5030883;28;20469;-71
2022/01/01 05:48:25;;;;;;;1.60;1.00;;;13.10;98.20;;;;;;5042620;28;20470;-71
2022/01/01 05:50:52;;;;;;;1.60;1.00;;;13.10;98.20;;;;;;5032207;28;20482;-71
2022/01/01 05:53:19;;;;;;;1.80;1.47;;;13.10;98.20;;;;;;5059782;28;20498;-71
2022/01/01 05:55:47;;;;;;;1.60;1.10;;;13.00;98.20;;;;;;5043237;28;20855;-71
2022/01/01 05:58:14;;;;;;;1.60;1.00;;;13.00;98.20;;;;;;5029986;28;20860;-71
2022/01/01 06:00:41;;;;;;;1.60;1.10;;;13.00;98.20;;;;;;5041473;28;20486;-71
2022/01/01 06:03:10;;;;;;;1.60;1.10;;;13.10;98.20;;;;;;5051690;28;20582;-71
2022/01/01 06:05:37;;;;;;;1.60;1.10;;;13.00;98.20;;;;;;5044374;28;20477;-71
2022/01/01 06:08:05;;;;;;;1.63;1.00;;;13.00;98.20;;;;;;5033195;28;20858;-71
2022/01/01 06:10:31;;;;;;;1.60;1.00;;;13.10;98.20;;;;;;5044051;28;20489;-71
2022/01/01 06:12:58;;;;;;;1.60;1.10;;;13.00;98.20;;;;;;5034280;28;20486;-71
2022/01/01 06:15:25;;;;;;;1.60;1.10;;;13.00;98.20;;;;;;5047116;28;20549;-70
2022/01/01 06:17:52;;;;;;;1.60;1.00;;;13.00;98.20;;;;;;5044629;28;20481;-71
2022/01/01 06:20:21;;;;;;;1.60;1.00;;;13.00;98.20;;;;;;5045703;28;20498;-71
2022/01/01 06:22:47;;;;;;;1.60;1.00;;;13.00;98.20;;;;;;5050374;28;20481;-71
2022/01/01 06:25:14;;;;;;;1.60;1.00;;;13.10;98.20;;;;;;5042396;28;20875;-71
2022/01/01 06:27:41;;;;;;;1.60;1.10;;;13.00;98.20;;;;;;5026269;28;20481;-71
2022/01/01 06:30:09;;;;;;;1.60;1.00;;;13.00;98.20;;;;;;5047032;28;20576;-71
2022/01/01 06:32:36;;;;;;;1.60;1.00;;;13.00;98.20;;;;;;5048291;28;20560;-71
2022/01/01 06:35:04;;;;;;;1.60;1.10;;;13.00;98.20;;;;;;5042228;28;20982;-71
2022/01/01 06:37:32;;;;;;;1.70;1.10;;;13.00;98.20;;;;;;5048609;28;20481;-71
2022/01/01 06:39:59;;;;;;;1.60;1.00;;;13.00;98.20;;;;;;5044739;28;20962;-71
2022/01/01 06:42:26;;;;;;;1.60;1.10;;;13.00;98.20;;;;;;5045241;28;20568;-71
2022/01/01 06:44:53;;;;;;;1.60;1.00;;;13.00;98.20;;;;;;5047592;28;20843;-71
2022/01/01 06:47:20;;;;;;;1.60;1.00;;;13.00;98.20;;;;;;5044592;28;20474;-70
2022/01/01 06:49:46;;;;;;;1.60;1.00;;;13.00;98.20;;;;;;5042127;28;20741;-71
2022/01/01 06:52:13;;;;;;;1.70;1.20;;;13.00;98.20;;;;;;5032757;28;21184;-71
2022/01/01 06:54:41;;;;;;;1.60;1.10;;;13.00;98.20;;;;;;5042158;28;20454;-71
2022/01/01 06:57:08;;;;;;;1.60;1.00;;;13.00;98.20;;;;;;5045110;28;20492;-71
2022/01/01 06:59:35;;;;;;;1.60;1.00;;;13.00;98.20;;;;;;5046397;28;20506;-70
2022/01/01 07:02:02;;;;;;;1.60;1.03;;;13.00;98.20;;;;;;5044391;28;20489;-70
2022/01/01 07:04:29;;;;;;;1.63;1.10;;;13.00;98.20;;;;;;5048932;28;20643;-71
2022/01/01 07:06:56;;;;;;;1.60;1.00;;;13.00;98.20;;;;;;5043240;28;20488;-72
2022/01/01 07:09:23;;;;;;;1.60;1.10;;;13.00;98.20;;;;;;5050561;28;21080;-71
2022/01/01 07:11:51;;;;;;;1.60;1.10;;;13.00;98.20;;;;;;5034531;28;20489;-70
2022/01/01 07:14:21;;;;;;;1.60;1.00;;;13.00;98.20;;;;;;5041065;28;20486;-70
2022/01/01 07:16:48;;;;;;;1.60;1.10;;;13.00;98.20;;;;;;5039275;28;20558;-70
2022/01/01 07:19:15;;;;;;;1.60;1.00;;;13.00;98.20;;;;;;5049850;28;21084;-70
2022/01/01 07:21:42;;;;;;;1.60;1.10;;;13.00;98.20;;;;;;5038909;28;20485;-70
2022/01/01 07:24:09;;;;;;;1.60;1.20;;;13.00;98.20;;;;;;5052930;28;20474;-70
2022/01/01 07:26:36;;;;;;;1.60;1.00;;;13.00;98.20;;;;;;5029506;28;20474;-70
2022/01/01 07:29:04;;;;;;;1.60;1.00;;;13.00;98.20;;;;;;5038442;28;20462;-70
2022/01/01 07:31:31;;;;;;;1.60;1.10;;;13.00;98.20;;;;;;5029242;28;20490;-70
2022/01/01 07:33:58;;;;;;;1.60;1.00;;;13.00;98.20;;;;;;5039662;28;20528;-70
2022/01/01 07:36:25;;;;;;;1.60;1.10;;;13.00;98.20;;;;;;5029232;28;20483;-70
2022/01/01 07:38:52;;;;;;;1.67;1.17;;;13.00;98.20;;;;;;5041827;28;20489;-70
2022/01/01 07:41:20;;;;;;;1.60;1.03;;;13.00;98.20;;;;;;5038191;28;20477;-70
2022/01/01 07:43:47;;;;;;;1.60;1.07;;;13.00;98.20;;;;;;5053064;28;20485;-70
2022/01/01 07:46:15;;;;;;;1.63;1.00;;;13.00;98.20;;;;;;5026721;28;20479;-70
2022/01/01 07:48:42;;;;;;;1.60;1.10;;;13.00;98.20;;;;;;5041288;28;20528;-70
2022/01/01 07:51:09;;;;;;;1.60;1.10;;;13.10;98.20;;;;;;5035342;28;21043;-69
2022/01/01 07:53:36;;;;;;;1.60;1.10;;;13.00;98.20;;;;;;5056979;28;20466;-70
2022/01/01 07:56:04;;;;;;;1.60;1.00;;;13.00;98.20;;;;;;5026280;28;20466;-70
2022/01/01 07:58:32;;;;;;;1.60;1.00;;;13.00;98.20;;;;;;5042692;28;21025;-70
2022/01/01 08:00:59;;;;;;;1.60;1.00;;;13.00;98.20;;;;;;5031941;28;21062;-70
2022/01/01 08:03:27;;;;;;;1.60;1.00;;;13.00;98.20;;;;;;5054253;28;20489;-70
2022/01/01 08:05:54;;;;;;;1.60;1.00;;;13.00;98.20;;;;;;5030405;28;20466;-70
2022/01/01 08:08:21;;;;;;;1.60;1.00;;;13.00;98.20;;;;;;5055146;28;20498;-70
2022/01/01 08:10:49;;;;;;;1.60;1.10;;;13.00;98.20;;;;;;5037005;28;20482;-70
2022/01/01 08:13:23;;;;;;;1.60;1.00;;;13.00;98.20;;;;;;5057019;28;20471;-70
2022/01/01 08:15:50;;;;;;;1.60;1.00;;;13.00;98.20;;;;;;5033809;28;20462;-70
2022/01/01 08:18:17;;;;;;;1.60;1.00;;;13.00;98.20;;;;;;5056481;28;20482;-69
2022/01/01 08:20:47;;;;;;;1.60;1.00;;;13.00;98.20;;;;;;5044312;28;20553;-70
2022/01/01 08:23:14;;;;;;;1.60;1.00;;;13.10;98.20;;;;;;5022650;28;20804;-70
2022/01/01 08:25:41;;;;;;;1.60;1.00;;;13.10;98.20;;;;;;5048948;28;20458;-70
2022/01/01 08:28:09;;;;;;;1.60;1.00;;;13.10;98.20;;;;;;5047153;28;20485;-70
2022/01/01 08:30:36;;;;;;;1.60;1.00;;;13.10;98.20;;;;;;5049609;28;20475;-69
2022/01/01 08:33:04;;;;;;;1.60;1.00;;;13.10;98.20;;;;;;5046493;28;20477;-70
2022/01/01 08:35:31;;;;;;;1.60;1.10;;;13.20;98.20;;;;;;5048215;28;20623;-69
2022/01/01 08:38:00;;;;;;;1.60;1.10;;;13.20;98.20;;;;;;5035513;28;20493;-70
2022/01/01 08:40:28;;;;;;;1.60;1.10;;;13.30;98.20;;;;;;5044670;28;20512;-71
2022/01/01 08:42:55;;;;;;;1.60;1.03;;;13.30;98.20;;;;;;5034418;28;20569;-71
2022/01/01 08:45:23;;;;;;;1.60;1.10;;;13.30;98.20;;;;;;5042802;28;20553;-71
2022/01/01 08:47:50;;;;;;;1.60;1.10;;;13.30;98.20;;;;;;5032510;28;20483;-71
2022/01/01 08:50:17;;;;;;;1.60;1.00;;;13.40;98.20;;;;;;5038516;28;21026;-70
2022/01/01 08:52:44;;;;;;;1.60;1.00;;;13.40;98.20;;;;;;5052131;28;20466;-70
2022/01/01 08:55:13;;;;;;;1.60;1.10;;;13.40;98.20;;;;;;5040962;28;20466;-70
2022/01/01 08:57:40;;;;;;;1.60;1.10;;;13.40;98.20;;;;;;5051905;28;20647;-70
2022/01/01 09:00:09;;;;;;;1.60;1.00;;;13.50;98.20;;;;;;5047206;28;20470;-70
2022/01/01 09:02:37;;;;;;;1.60;1.00;;;13.50;98.20;;;;;;5047941;28;20997;-70
2022/01/01 09:05:05;;;;;;;1.60;1.00;;;13.50;98.20;;;;;;5049516;28;20545;-70
2022/01/01 09:07:32;;;;;;;1.60;1.07;;;13.50;98.20;;;;;;5047485;28;20489;-70
2022/01/01 09:10:01;;;;;;;1.60;1.00;;;13.50;98.20;;;;;;5047672;28;20465;-70
2022/01/01 09:12:30;;;;;;;1.60;1.00;;;13.50;98.20;;;;;;5047200;28;20584;-70
2022/01/01 09:14:57;;;;;;;1.60;1.10;;;13.60;98.20;;;;;;5043572;28;20960;-70
2022/01/01 09:17:24;;;;;;;1.60;1.03;;;13.60;98.20;;;;;;5051095;28;20486;-70
2022/01/01 09:19:51;;;;;;;1.60;1.00;;;13.70;98.20;;;;;;5045897;28;20927;-70
2022/01/01 09:22:19;;;;;;;1.60;1.00;;;13.70;98.20;;;;;;5041942;28;21002;-70
2022/01/01 09:24:46;;;;;;;1.60;1.00;;;13.80;98.20;;;;;;5040501;28;20839;-71
2022/01/01 09:27:14;;;;;;;1.60;1.03;;;13.80;98.20;;;;;;5041264;28;20481;-69
2022/01/01 09:29:42;;;;;;;1.60;1.00;;;13.90;98.20;;;;;;5046617;28;20841;-68
2022/01/01 09:32:10;;;;;;;1.60;1.10;;;13.90;98.20;;;;;;5045453;28;20488;-69
2022/01/01 09:34:37;;;;;;;1.63;1.10;;;13.90;98.20;;;;;;5049345;28;20570;-69
2022/01/01 09:37:05;;;;;;;1.60;1.00;;;14.00;98.20;;;;;;5047459;28;21074;-69
2022/01/01 09:39:32;;;;;;;1.60;1.00;;;14.00;98.20;;;;;;5042501;28;21024;-69
2022/01/01 09:42:02;;;;;;;1.60;1.00;;;14.00;98.20;;;;;;5031385;28;20522;-69
2022/01/01 09:44:36;;;;;;;1.60;1.00;;;14.10;98.20;;;;;;5039817;28;20818;-69
2022/01/01 09:47:05;;;;;;;3.50;2.20;;;14.10;98.20;;;;;;5040515;28;21093;-69
2022/01/01 09:49:32;;;;;;;1.60;1.00;;;14.10;98.20;;;;;;5040762;28;20455;-69
2022/01/01 09:51:59;;;;;;;1.60;1.00;;;14.20;98.20;;;;;;5043307;28;20988;-69
2022/01/01 09:54:30;;;;;;;1.60;1.00;;;14.20;98.20;;;;;;5047537;28;20989;-69
2022/01/01 09:56:57;;;;;;;1.60;1.00;;;14.30;98.20;;;;;;5044147;28;20796;-69
2022/01/01 09:59:25;;;;;;;1.60;1.00;;;14.30;98.20;;;;;;5048574;28;20581;-69
2022/01/01 10:01:52;;;;;;;1.60;1.10;;;14.30;98.20;;;;;;5039579;28;20540;-69
2022/01/01 10:04:21;;;;;;;1.63;1.10;;;14.40;98.20;;;;;;5051007;28;20463;-71
2022/01/01 10:07:03;;;;;;;1.60;1.00;;;14.40;98.20;;;;;;5043345;28;20996;-70
2022/01/01 10:09:33;;;;;;;1.60;1.00;;;14.40;98.20;;;;;;5046196;28;20882;-70
2022/01/01 10:12:00;;;;;;;1.60;1.00;;;14.40;98.20;;;;;;5044891;28;20490;-70
2022/01/01 10:14:35;;;;;;;1.60;1.10;;;14.50;98.20;;;;;;5045637;28;20553;-69
2022/01/01 10:17:13;;;;;;;1.60;0.90;;;14.50;98.20;;;;;;5040848;28;20783;-70
2022/01/01 10:19:42;;;;;;;1.63;1.10;;;14.50;98.20;;;;;;5045809;28;20887;-70
2022/01/01 10:22:13;;;;;;;1.60;1.00;;;14.50;98.20;;;;;;5039843;28;21075;-70
2022/01/01 10:27:42;;;;;;;1.80;1.53;;;14.50;98.20;;;;;;5048227;28;20481;-70
2022/01/01 10:27:46;;;;;;;1.60;1.00;;;14.50;98.20;;;;;;5044033;28;20469;-70
2022/01/01 10:30:22;;;;;;;1.60;1.00;;;14.60;98.20;;;;;;5045182;28;20458;-70
2022/01/01 10:33:08;;;;;;;1.60;1.00;;;14.60;98.20;;;;;;5046159;28;20860;-70
2022/01/01 10:35:38;;;;;;;1.60;1.10;;;14.60;98.20;;;;;;5044911;28;20470;-70
2022/01/01 10:38:11;;;;;;;1.60;1.00;;;14.70;98.20;;;;;;5045078;28;21005;-70
2022/01/01 10:40:39;;;;;;;1.63;1.00;;;14.70;98.20;;;;;;5043549;28;20474;-70
2022/01/01 10:43:06;;;;;;;1.60;1.00;;;14.80;98.20;;;;;;5025891;28;20490;-69
2022/01/01 10:45:36;;;;;;;1.60;1.00;;;14.80;98.20;;;;;;5044829;28;20462;-70
2022/01/01 10:48:20;;;;;;;1.60;1.00;;;14.80;98.20;;;;;;5049288;28;20488;-70
2022/01/01 10:50:50;;;;;;;1.60;0.90;;;14.80;98.20;;;;;;5044677;28;20470;-69
2022/01/01 10:53:20;;;;;;;1.60;1.00;;;14.80;98.20;;;;;;5029690;28;20489;-69
2022/01/01 10:55:52;;;;;;;1.60;1.00;;;14.80;98.20;;;;;;5042015;28;20484;-69
2022/01/01 10:58:23;;;;;;;1.60;1.10;;;14.80;98.20;;;;;;5031592;28;20475;-69
2022/01/01 11:00:51;;;;;;;1.63;1.10;;;14.90;98.20;;;;;;5034548;28;20627;-70
2022/01/01 11:03:20;;;;;;;1.60;1.00;;;14.90;98.20;;;;;;5057040;28;20968;-70
2022/01/01 11:05:51;;;;;;;1.60;1.00;;;15.00;98.20;;;;;;5044908;28;20466;-70
2022/01/01 11:08:18;;;;;;;1.60;1.00;;;15.00;98.20;;;;;;5028484;28;20490;-69
2022/01/01 11:10:45;;;;;;;1.67;1.00;;;15.00;98.20;;;;;;5044547;28;20496;-70
2022/01/01 11:13:12;;;;;;;1.60;1.00;;;15.00;98.20;;;;;;5048099;28;20475;-70
2022/01/01 11:15:40;;;;;;;1.60;1.00;;;15.00;98.20;;;;;;5043503;28;20466;-70
2022/01/01 11:18:09;;;;;;;1.60;1.00;;;15.00;98.20;;;;;;5025033;28;21101;-70
2022/01/01 11:20:38;;;;;;;1.60;1.00;;;15.00;98.20;;;;;;5044908;28;20494;-70
2022/01/01 11:23:09;;;;;;;1.63;1.00;;;15.00;98.20;;;;;;5047780;28;20493;-70
2022/01/01 11:25:39;;;;;;;1.60;1.00;;;15.10;98.20;;;;;;5043293;28;20466;-71
2022/01/01 11:28:10;;;;;;;1.60;1.00;;;15.10;98.20;;;;;;5047980;28;20543;-70
2022/01/01 11:30:39;;;;;;;1.60;1.00;;;15.10;98.20;;;;;;5044106;28;20492;-71
2022/01/01 11:33:09;;;;;;;1.60;1.00;;;15.10;98.20;;;;;;5044977;28;20568;-70
2022/01/01 11:35:39;;;;;;;1.60;1.00;;;15.10;98.20;;;;;;5030697;28;20625;-70
2022/01/01 11:38:09;;;;;;;1.60;1.07;;;15.10;98.20;;;;;;5044006;28;20481;-71
2022/01/01 11:40:53;;;;;;;1.60;1.00;;;15.10;98.20;;;;;;5040547;28;20503;-71
2022/01/01 11:43:39;;;;;;;1.60;1.00;;;15.10;98.20;;;;;;5041882;28;20596;-71
2022/01/01 11:46:12;;;;;;;1.60;1.00;;;15.20;98.20;;;;;;5031011;28;20641;-71
2022/01/01 11:48:45;;;;;;;1.60;1.00;;;15.30;98.20;;;;;;5051423;28;20465;-71
2022/01/01 11:51:28;;;;;;;1.60;1.00;;;15.30;98.20;;;;;;5030497;28;20481;-71
2022/01/01 11:54:31;;;;;;;1.60;1.00;;;15.30;98.20;;;;;;5046722;28;20848;-70
2022/01/01 11:57:19;;;;;;;1.60;1.00;;;15.20;98.20;;;;;;5013872;28;20479;-70
2022/01/01 11:59:52;;;;;;;1.60;1.00;;;15.30;98.20;;;;;;5021375;28;20491;-72
2022/01/01 12:02:37;;;;;;;1.60;1.00;;;15.30;98.20;;;;;;5017702;28;20495;-71
2022/01/01 12:05:20;;;;;;;1.60;1.00;;;15.30;98.20;;;;;;5020907;28;20687;-73
2022/01/01 12:07:51;;;;;;;1.60;1.00;;;15.30;98.20;;;;;;5020823;28;20487;-71
2022/01/01 12:10:32;;;;;;;1.63;1.00;;;15.40;98.20;;;;;;5014624;28;20569;-72
2022/01/01 12:13:01;;;;;;;1.60;0.97;;;15.40;98.20;;;;;;5022034;28;20485;-71
2022/01/01 12:15:48;;;;;;;1.60;1.00;;;15.40;98.20;;;;;;5019075;28;21006;-71
2022/01/01 12:18:18;;;;;;;1.60;1.00;;;15.50;98.20;;;;;;5021558;28;20866;-71
2022/01/01 12:20:50;;;;;;;1.60;1.00;;;15.50;98.20;;;;;;5017571;28;20570;-71
2022/01/01 12:23:18;;;;;;;1.60;1.00;;;15.50;98.20;;;;;;5007312;28;20557;-72
2022/01/01 12:25:48;;;;;;;1.60;1.00;;;15.50;98.20;;;;;;5020998;28;20990;-73
2022/01/01 12:28:18;;;;;;;1.70;1.00;;;15.50;98.20;;;;;;5008267;28;20507;-73
2022/01/01 12:30:48;;;;;;;1.60;1.00;;;15.50;98.20;;;;;;5018368;28;20566;-73
2022/01/01 12:33:26;;;;;;;1.60;1.00;;;15.50;98.20;;;;;;5006499;28;20934;-71
2022/01/01 12:35:56;;;;;;;1.60;1.00;;;15.50;98.20;;;;;;5008744;28;20809;-73
2022/01/01 12:38:26;;;;;;;1.67;1.10;;;15.60;98.20;;;;;;5034807;28;20575;-71
2022/01/01 12:41:08;;;;;;;1.67;1.10;;;15.60;98.20;;;;;;5010759;28;21063;-71
2022/01/01 12:43:52;;;;;;;1.63;1.00;;;15.60;98.20;;;;;;5030286;28;20468;-70
2022/01/01 12:46:21;;;;;;;1.60;1.00;;;15.70;98.20;;;;;;5008545;28;20489;-70
2022/01/01 12:48:49;;;;;;;1.60;1.00;;;15.80;98.20;;;;;;5015751;28;20987;-71
2022/01/01 12:51:20;;;;;;;1.63;1.00;;;15.90;98.20;;;;;;5011300;28;20486;-71
2022/01/01 12:53:52;;;;;;;1.60;1.00;;;16.00;98.20;;;;;;5028611;28;20549;-73
2022/01/01 12:56:22;;;;;;;1.60;1.00;;;16.10;98.20;;;;;;5017450;28;20469;-71